• °C
  • Pobieranie danych...
wx


PRINT OUT SECTION, show »

METAR EPBY 190500Z 28004KT 9999 FEW032 06/05 Q1015=

METAR EPGD 190500Z 02010KT 350V060 9999 FEW028 BKN038 11/04 Q1016 =

METAR EPKK 190500Z 28009KT 9999 FEW008 BKN012 09/07 Q1014 =

METAR EPKT 190500Z 32006KT 300V360 3700 -DZ BR BKN003 OVC004 07/07
Q1014 =

METAR EPLB 190500Z 29010KT 7000 -RA SCT006 BKN010 OVC045 07/07 Q1009
=

METAR EPLL 190500Z 31005KT 270V360 9999 FEW010 08/06 Q1014 =

METAR EPMO 190500Z 30008KT 9999 BKN041 08/07 Q1012 =

METAR EPPO 190500Z 33004KT 9999 BKN049 09/07 Q1016 =

METAR EPRA 190500Z NIL=

METAR EPRZ 190500Z 28010KT 9999 -RA SCT006 BKN013 07/06 Q1011 =

METAR EPSC 190500Z 36003KT 9999 OVC046 11/08 Q1017 =

METAR EPSY 190500Z 35008KT 9999 BKN037 07/05 Q1012=

METAR EPWA 190500Z 31009KT 9999 FEW012 BKN035 08/06 Q1012 NOSIG=

METAR EPWR 190500Z 33004KT 9999 FEW026 BKN036 09/08 Q1016 =

METAR EPZG 190500Z 33003KT 300V360 9999 OVC046 10/08 Q1017 =



IMGW-PIB Sites